sensor_id;sensor_type;location;lat;lon;timestamp;temperature;humidity
35692;DHT22;26978;44.830;-0.674;2022-09-09T00:01:28;15.90;99.90
35692;DHT22;26978;44.830;-0.674;2022-09-09T00:06:46;15.80;99.90
35692;DHT22;26978;44.830;-0.674;2022-09-09T00:09:19;15.90;99.90
35692;DHT22;26978;44.830;-0.674;2022-09-09T00:11:48;16.00;99.90
35692;DHT22;26978;44.830;-0.674;2022-09-09T00:16:50;15.90;99.90
35692;DHT22;26978;44.830;-0.674;2022-09-09T00:19:56;15.90;99.90
35692;DHT22;26978;44.830;-0.674;2022-09-09T00:22:16;15.90;99.90
35692;DHT22;26978;44.830;-0.674;2022-09-09T00:27:14;15.90;99.90
35692;DHT22;26978;44.830;-0.674;2022-09-09T00:29:43;15.80;99.90
35692;DHT22;26978;44.830;-0.674;2022-09-09T00:32:13;15.80;99.90
35692;DHT22;26978;44.830;-0.674;2022-09-09T00:34:42;15.70;99.90
35692;DHT22;26978;44.830;-0.674;2022-09-09T00:37:09;15.70;99.90
35692;DHT22;26978;44.830;-0.674;2022-09-09T00:39:42;15.70;99.90
35692;DHT22;26978;44.830;-0.674;2022-09-09T00:42:12;15.60;99.90
35692;DHT22;26978;44.830;-0.674;2022-09-09T00:44:40;15.70;99.90
35692;DHT22;26978;44.830;-0.674;2022-09-09T00:47:17;15.70;99.90
35692;DHT22;26978;44.830;-0.674;2022-09-09T00:49:50;15.70;99.90
35692;DHT22;26978;44.830;-0.674;2022-09-09T00:57:29;15.90;99.90
35692;DHT22;26978;44.830;-0.674;2022-09-09T01:00:00;15.70;99.90
35692;DHT22;26978;44.830;-0.674;2022-09-09T01:05:15;15.60;99.90
35692;DHT22;26978;44.830;-0.674;2022-09-09T01:07:43;15.60;99.90
35692;DHT22;26978;44.830;-0.674;2022-09-09T01:10:14;15.50;99.90
35692;DHT22;26978;44.830;-0.674;2022-09-09T01:12:46;15.40;99.90
35692;DHT22;26978;44.830;-0.674;2022-09-09T01:20:14;15.60;99.90
35692;DHT22;26978;44.830;-0.674;2022-09-09T01:25:30;15.60;99.90
35692;DHT22;26978;44.830;-0.674;2022-09-09T01:27:58;15.60;99.90
35692;DHT22;26978;44.830;-0.674;2022-09-09T01:30:24;15.60;99.90
35692;DHT22;26978;44.830;-0.674;2022-09-09T01:32:52;15.70;99.90
35692;DHT22;26978;44.830;-0.674;2022-09-09T01:37:56;15.80;99.90
35692;DHT22;26978;44.830;-0.674;2022-09-09T01:40:22;15.70;99.90
35692;DHT22;26978;44.830;-0.674;2022-09-09T01:42:48;15.70;99.90
35692;DHT22;26978;44.830;-0.674;2022-09-09T01:45:13;15.80;99.90
35692;DHT22;26978;44.830;-0.674;2022-09-09T01:47:39;15.80;99.90
35692;DHT22;26978;44.830;-0.674;2022-09-09T01:50:05;15.90;99.90
35692;DHT22;26978;44.830;-0.674;2022-09-09T01:52:33;15.90;99.90
35692;DHT22;26978;44.830;-0.674;2022-09-09T01:55:01;15.80;99.90
35692;DHT22;26978;44.830;-0.674;2022-09-09T01:57:27;15.70;99.90
35692;DHT22;26978;44.830;-0.674;2022-09-09T02:00:01;15.60;99.90
35692;DHT22;26978;44.830;-0.674;2022-09-09T02:05:09;15.40;99.90
35692;DHT22;26978;44.830;-0.674;2022-09-09T02:07:41;15.40;99.90
35692;DHT22;26978;44.830;-0.674;2022-09-09T02:10:17;15.20;99.90
35692;DHT22;26978;44.830;-0.674;2022-09-09T02:12:53;15.20;99.90
35692;DHT22;26978;44.830;-0.674;2022-09-09T02:15:32;15.10;99.90
35692;DHT22;26978;44.830;-0.674;2022-09-09T02:17:59;15.10;99.90
35692;DHT22;26978;44.830;-0.674;2022-09-09T02:20:27;15.10;99.90
35692;DHT22;26978;44.830;-0.674;2022-09-09T02:22:57;15.20;99.90
35692;DHT22;26978;44.830;-0.674;2022-09-09T02:25:24;15.10;99.90
35692;DHT22;26978;44.830;-0.674;2022-09-09T02:27:50;15.10;99.90
35692;DHT22;26978;44.830;-0.674;2022-09-09T02:30:17;15.20;99.90
35692;DHT22;26978;44.830;-0.674;2022-09-09T02:32:43;15.20;99.90
35692;DHT22;26978;44.830;-0.674;2022-09-09T02:35:12;15.20;99.90
35692;DHT22;26978;44.830;-0.674;2022-09-09T02:37:39;15.20;99.90
35692;DHT22;26978;44.830;-0.674;2022-09-09T02:40:05;15.30;99.90
35692;DHT22;26978;44.830;-0.674;2022-09-09T02:42:31;15.20;99.90
35692;DHT22;26978;44.830;-0.674;2022-09-09T02:44:57;15.20;99.90
35692;DHT22;26978;44.830;-0.674;2022-09-09T02:55:18;15.30;99.90
35692;DHT22;26978;44.830;-0.674;2022-09-09T02:57:48;15.30;99.90
35692;DHT22;26978;44.830;-0.674;2022-09-09T03:00:15;15.40;99.90
35692;DHT22;26978;44.830;-0.674;2022-09-09T03:02:40;15.40;99.90
35692;DHT22;26978;44.830;-0.674;2022-09-09T03:05:07;15.50;99.90
35692;DHT22;26978;44.830;-0.674;2022-09-09T03:07:33;15.60;99.90
35692;DHT22;26978;44.830;-0.674;2022-09-09T03:09:58;15.70;99.90
35692;DHT22;26978;44.830;-0.674;2022-09-09T03:12:24;15.70;99.90
35692;DHT22;26978;44.830;-0.674;2022-09-09T03:14:50;15.80;99.90
35692;DHT22;26978;44.830;-0.674;2022-09-09T03:17:15;15.90;99.90
35692;DHT22;26978;44.830;-0.674;2022-09-09T03:19:42;15.90;99.90
35692;DHT22;26978;44.830;-0.674;2022-09-09T03:22:09;15.90;99.90
35692;DHT22;26978;44.830;-0.674;2022-09-09T03:24:35;16.00;99.90
35692;DHT22;26978;44.830;-0.674;2022-09-09T03:27:00;16.00;99.90
35692;DHT22;26978;44.830;-0.674;2022-09-09T03:29:26;16.10;99.90
35692;DHT22;26978;44.830;-0.674;2022-09-09T03:31:51;16.10;99.90
35692;DHT22;26978;44.830;-0.674;2022-09-09T03:34:17;16.20;99.90
35692;DHT22;26978;44.830;-0.674;2022-09-09T03:36:43;16.20;99.90
35692;DHT22;26978;44.830;-0.674;2022-09-09T03:39:08;16.20;99.90
35692;DHT22;26978;44.830;-0.674;2022-09-09T03:41:34;16.20;99.90
35692;DHT22;26978;44.830;-0.674;2022-09-09T03:43:59;16.20;99.90
35692;DHT22;26978;44.830;-0.674;2022-09-09T03:46:25;16.20;99.90
35692;DHT22;26978;44.830;-0.674;2022-09-09T03:48:51;16.10;99.90
35692;DHT22;26978;44.830;-0.674;2022-09-09T03:51:20;16.10;99.90
35692;DHT22;26978;44.830;-0.674;2022-09-09T03:53:46;16.10;99.90
35692;DHT22;26978;44.830;-0.674;2022-09-09T03:56:12;16.10;99.90
35692;DHT22;26978;44.830;-0.674;2022-09-09T03:58:37;16.00;99.90
35692;DHT22;26978;44.830;-0.674;2022-09-09T04:01:04;16.00;99.90
35692;DHT22;26978;44.830;-0.674;2022-09-09T04:03:30;16.00;99.90
35692;DHT22;26978;44.830;-0.674;2022-09-09T04:05:57;15.90;99.90
35692;DHT22;26978;44.830;-0.674;2022-09-09T04:08:23;15.70;99.90
35692;DHT22;26978;44.830;-0.674;2022-09-09T04:10:52;15.60;99.90
35692;DHT22;26978;44.830;-0.674;2022-09-09T04:13:18;15.60;99.90
35692;DHT22;26978;44.830;-0.674;2022-09-09T04:15:51;15.70;99.90
35692;DHT22;26978;44.830;-0.674;2022-09-09T04:18:17;15.70;99.90
35692;DHT22;26978;44.830;-0.674;2022-09-09T04:20:43;15.70;99.90
35692;DHT22;26978;44.830;-0.674;2022-09-09T04:23:08;15.70;99.90
35692;DHT22;26978;44.830;-0.674;2022-09-09T04:25:34;15.70;99.90
35692;DHT22;26978;44.830;-0.674;2022-09-09T04:28:00;15.50;99.90
35692;DHT22;26978;44.830;-0.674;2022-09-09T04:30:25;15.50;99.90
35692;DHT22;26978;44.830;-0.674;2022-09-09T04:32:52;15.50;99.90
35692;DHT22;26978;44.830;-0.674;2022-09-09T04:35:18;15.40;99.90
35692;DHT22;26978;44.830;-0.674;2022-09-09T04:37:45;15.30;99.90
35692;DHT22;26978;44.830;-0.674;2022-09-09T04:40:11;15.20;99.90
35692;DHT22;26978;44.830;-0.674;2022-09-09T04:42:36;15.40;99.90
35692;DHT22;26978;44.830;-0.674;2022-09-09T04:45:02;15.30;99.90
35692;DHT22;26978;44.830;-0.674;2022-09-09T04:47:28;15.30;99.90
35692;DHT22;26978;44.830;-0.674;2022-09-09T04:49:53;15.20;99.90
35692;DHT22;26978;44.830;-0.674;2022-09-09T04:52:20;15.20;99.90
35692;DHT22;26978;44.830;-0.674;2022-09-09T04:54:46;15.10;99.90
35692;DHT22;26978;44.830;-0.674;2022-09-09T04:57:12;15.20;99.90
35692;DHT22;26978;44.830;-0.674;2022-09-09T04:59:37;15.30;99.90
35692;DHT22;26978;44.830;-0.674;2022-09-09T05:02:04;15.40;99.90
35692;DHT22;26978;44.830;-0.674;2022-09-09T05:04:30;15.40;99.90
35692;DHT22;26978;44.830;-0.674;2022-09-09T05:06:55;15.40;99.90
35692;DHT22;26978;44.830;-0.674;2022-09-09T05:09:21;15.50;99.90
35692;DHT22;26978;44.830;-0.674;2022-09-09T05:11:46;15.50;99.90
35692;DHT22;26978;44.830;-0.674;2022-09-09T05:14:12;15.40;99.90
35692;DHT22;26978;44.830;-0.674;2022-09-09T05:16:38;15.40;99.90
35692;DHT22;26978;44.830;-0.674;2022-09-09T05:19:03;15.30;99.90
35692;DHT22;26978;44.830;-0.674;2022-09-09T05:21:29;15.30;99.90
35692;DHT22;26978;44.830;-0.674;2022-09-09T05:23:56;15.30;99.90
35692;DHT22;26978;44.830;-0.674;2022-09-09T05:26:21;15.20;99.90
35692;DHT22;26978;44.830;-0.674;2022-09-09T05:28:47;15.30;99.90
35692;DHT22;26978;44.830;-0.674;2022-09-09T05:31:13;15.30;99.90
35692;DHT22;26978;44.830;-0.674;2022-09-09T05:33:40;15.40;99.90
35692;DHT22;26978;44.830;-0.674;2022-09-09T05:36:07;15.30;99.90
35692;DHT22;26978;44.830;-0.674;2022-09-09T05:38:33;15.30;99.90
35692;DHT22;26978;44.830;-0.674;2022-09-09T05:40:59;15.40;99.90
35692;DHT22;26978;44.830;-0.674;2022-09-09T05:43:28;15.40;99.90
35692;DHT22;26978;44.830;-0.674;2022-09-09T05:46:01;15.40;99.90
35692;DHT22;26978;44.830;-0.674;2022-09-09T05:48:30;15.40;99.90
35692;DHT22;26978;44.830;-0.674;2022-09-09T05:50:56;15.30;99.90
35692;DHT22;26978;44.830;-0.674;2022-09-09T05:53:21;15.20;99.90
35692;DHT22;26978;44.830;-0.674;2022-09-09T05:55:47;15.20;99.90
35692;DHT22;26978;44.830;-0.674;2022-09-09T05:58:13;15.10;99.90
35692;DHT22;26978;44.830;-0.674;2022-09-09T06:00:39;15.10;99.90
35692;DHT22;26978;44.830;-0.674;2022-09-09T06:03:05;15.10;99.90
35692;DHT22;26978;44.830;-0.674;2022-09-09T06:05:30;15.20;99.90
35692;DHT22;26978;44.830;-0.674;2022-09-09T06:07:56;15.30;99.90
35692;DHT22;26978;44.830;-0.674;2022-09-09T06:10:22;15.40;99.90
35692;DHT22;26978;44.830;-0.674;2022-09-09T06:12:47;15.50;99.90
35692;DHT22;26978;44.830;-0.674;2022-09-09T06:15:13;15.50;99.90
35692;DHT22;26978;44.830;-0.674;2022-09-09T06:17:38;15.60;99.90
35692;DHT22;26978;44.830;-0.674;2022-09-09T06:20:04;15.70;99.90
35692;DHT22;26978;44.830;-0.674;2022-09-09T06:22:30;15.90;99.90
35692;DHT22;26978;44.830;-0.674;2022-09-09T06:24:55;15.90;99.90
35692;DHT22;26978;44.830;-0.674;2022-09-09T06:27:21;16.00;99.90
35692;DHT22;26978;44.830;-0.674;2022-09-09T06:29:46;16.00;99.90
35692;DHT22;26978;44.830;-0.674;2022-09-09T06:32:13;16.10;99.90
35692;DHT22;26978;44.830;-0.674;2022-09-09T06:34:38;16.10;99.90
35692;DHT22;26978;44.830;-0.674;2022-09-09T06:37:04;16.20;99.90
35692;DHT22;26978;44.830;-0.674;2022-09-09T06:39:31;16.20;99.90
35692;DHT22;26978;44.830;-0.674;2022-09-09T06:41:57;16.30;99.90
35692;DHT22;26978;44.830;-0.674;2022-09-09T06:44:23;16.40;99.90
35692;DHT22;26978;44.830;-0.674;2022-09-09T06:46:52;16.50;99.90
35692;DHT22;26978;44.830;-0.674;2022-09-09T06:49:17;16.60;99.90
35692;DHT22;26978;44.830;-0.674;2022-09-09T06:51:43;16.70;99.90
35692;DHT22;26978;44.830;-0.674;2022-09-09T06:54:09;16.80;99.90
35692;DHT22;26978;44.830;-0.674;2022-09-09T06:56:36;17.00;99.90
35692;DHT22;26978;44.830;-0.674;2022-09-09T06:59:04;17.20;99.90
35692;DHT22;26978;44.830;-0.674;2022-09-09T07:01:31;17.40;99.90
35692;DHT22;26978;44.830;-0.674;2022-09-09T07:03:58;17.70;99.90
35692;DHT22;26978;44.830;-0.674;2022-09-09T07:06:40;18.00;99.90
35692;DHT22;26978;44.830;-0.674;2022-09-09T07:09:06;18.20;99.90
35692;DHT22;26978;44.830;-0.674;2022-09-09T07:11:34;18.40;99.90
35692;DHT22;26978;44.830;-0.674;2022-09-09T07:14:02;18.50;99.90
35692;DHT22;26978;44.830;-0.674;2022-09-09T07:16:28;18.40;99.90
35692;DHT22;26978;44.830;-0.674;2022-09-09T07:18:54;18.40;99.90
35692;DHT22;26978;44.830;-0.674;2022-09-09T07:21:23;18.40;99.90
35692;DHT22;26978;44.830;-0.674;2022-09-09T07:23:49;18.50;99.90
35692;DHT22;26978;44.830;-0.674;2022-09-09T07:26:18;18.80;99.90
35692;DHT22;26978;44.830;-0.674;2022-09-09T07:28:44;18.90;99.90
35692;DHT22;26978;44.830;-0.674;2022-09-09T07:33:42;19.00;99.90
35692;DHT22;26978;44.830;-0.674;2022-09-09T07:36:09;19.20;99.90
35692;DHT22;26978;44.830;-0.674;2022-09-09T07:38:53;19.30;99.90
35692;DHT22;26978;44.830;-0.674;2022-09-09T07:41:24;19.50;99.90
35692;DHT22;26978;44.830;-0.674;2022-09-09T07:43:50;19.80;99.90
35692;DHT22;26978;44.830;-0.674;2022-09-09T07:46:17;19.90;99.90
35692;DHT22;26978;44.830;-0.674;2022-09-09T07:48:46;20.10;99.90
35692;DHT22;26978;44.830;-0.674;2022-09-09T07:51:13;20.30;99.90
35692;DHT22;26978;44.830;-0.674;2022-09-09T07:53:43;20.50;99.90
35692;DHT22;26978;44.830;-0.674;2022-09-09T07:56:09;20.20;99.90
35692;DHT22;26978;44.830;-0.674;2022-09-09T07:58:36;19.90;99.90
35692;DHT22;26978;44.830;-0.674;2022-09-09T08:01:14;19.60;99.90
35692;DHT22;26978;44.830;-0.674;2022-09-09T08:03:42;19.70;99.90
35692;DHT22;26978;44.830;-0.674;2022-09-09T08:06:10;19.80;99.90
35692;DHT22;26978;44.830;-0.674;2022-09-09T08:08:36;20.00;99.90
35692;DHT22;26978;44.830;-0.674;2022-09-09T08:11:04;20.10;99.90
35692;DHT22;26978;44.830;-0.674;2022-09-09T08:13:30;20.10;99.90
35692;DHT22;26978;44.830;-0.674;2022-09-09T08:16:03;20.10;99.90
35692;DHT22;26978;44.830;-0.674;2022-09-09T08:18:28;20.20;99.90
35692;DHT22;26978;44.830;-0.674;2022-09-09T08:20:54;20.40;99.90
35692;DHT22;26978;44.830;-0.674;2022-09-09T08:23:20;20.40;99.90
35692;DHT22;26978;44.830;-0.674;2022-09-09T08:25:46;20.50;99.90
35692;DHT22;26978;44.830;-0.674;2022-09-09T08:28:14;20.40;99.90
35692;DHT22;26978;44.830;-0.674;2022-09-09T08:30:39;20.40;99.90
35692;DHT22;26978;44.830;-0.674;2022-09-09T08:33:05;20.50;99.90
35692;DHT22;26978;44.830;-0.674;2022-09-09T08:35:30;20.80;99.90
35692;DHT22;26978;44.830;-0.674;2022-09-09T08:37:57;21.00;99.90
35692;DHT22;26978;44.830;-0.674;2022-09-09T08:40:26;21.10;99.90
35692;DHT22;26978;44.830;-0.674;2022-09-09T08:42:54;21.40;99.90
35692;DHT22;26978;44.830;-0.674;2022-09-09T08:45:32;21.60;99.90
35692;DHT22;26978;44.830;-0.674;2022-09-09T08:50:33;20.90;99.90
35692;DHT22;26978;44.830;-0.674;2022-09-09T08:53:11;21.10;99.90
35692;DHT22;26978;44.830;-0.674;2022-09-09T08:55:48;21.30;99.90
35692;DHT22;26978;44.830;-0.674;2022-09-09T08:58:16;21.50;99.90
35692;DHT22;26978;44.830;-0.674;2022-09-09T09:00:45;21.80;99.90
35692;DHT22;26978;44.830;-0.674;2022-09-09T09:04:00;22.10;99.90
35692;DHT22;26978;44.830;-0.674;2022-09-09T09:06:02;22.20;99.90
35692;DHT22;26978;44.830;-0.674;2022-09-09T09:10:56;22.70;99.90
35692;DHT22;26978;44.830;-0.674;2022-09-09T09:13:44;22.10;99.90
35692;DHT22;26978;44.830;-0.674;2022-09-09T09:16:13;21.50;99.90
35692;DHT22;26978;44.830;-0.674;2022-09-09T09:18:43;21.10;99.90
35692;DHT22;26978;44.830;-0.674;2022-09-09T09:23:43;20.80;99.90
35692;DHT22;26978;44.830;-0.674;2022-09-09T09:26:10;21.00;99.90
35692;DHT22;26978;44.830;-0.674;2022-09-09T09:28:37;21.60;99.90
35692;DHT22;26978;44.830;-0.674;2022-09-09T09:31:09;21.80;99.80
35692;DHT22;26978;44.830;-0.674;2022-09-09T09:36:01;22.60;98.60
35692;DHT22;26978;44.830;-0.674;2022-09-09T09:38:28;23.10;99.90
35692;DHT22;26978;44.830;-0.674;2022-09-09T09:40:55;22.10;99.90
35692;DHT22;26978;44.830;-0.674;2022-09-09T09:43:29;20.30;99.90
35692;DHT22;26978;44.830;-0.674;2022-09-09T09:45:56;19.00;99.90
35692;DHT22;26978;44.830;-0.674;2022-09-09T09:48:23;18.70;99.90
35692;DHT22;26978;44.830;-0.674;2022-09-09T09:53:47;18.70;99.90
35692;DHT22;26978;44.830;-0.674;2022-09-09T09:58:33;19.40;99.90
35692;DHT22;26978;44.830;-0.674;2022-09-09T10:00:59;19.80;99.90
35692;DHT22;26978;44.830;-0.674;2022-09-09T10:05:51;19.80;99.90
35692;DHT22;26978;44.830;-0.674;2022-09-09T10:08:17;19.50;99.90
35692;DHT22;26978;44.830;-0.674;2022-09-09T10:13:18;17.40;99.90
35692;DHT22;26978;44.830;-0.674;2022-09-09T10:15:47;17.20;99.90
35692;DHT22;26978;44.830;-0.674;2022-09-09T10:21:37;17.70;99.90
35692;DHT22;26978;44.830;-0.674;2022-09-09T10:36:43;19.40;99.90
35692;DHT22;26978;44.830;-0.674;2022-09-09T10:39:21;19.80;99.90
35692;DHT22;26978;44.830;-0.674;2022-09-09T10:52:17;20.20;99.90
35692;DHT22;26978;44.830;-0.674;2022-09-09T10:54:54;20.40;99.90
35692;DHT22;26978;44.830;-0.674;2022-09-09T10:57:32;20.30;99.90
35692;DHT22;26978;44.830;-0.674;2022-09-09T11:00:04;20.10;99.90
35692;DHT22;26978;44.830;-0.674;2022-09-09T11:02:31;20.10;99.90
35692;DHT22;26978;44.830;-0.674;2022-09-09T11:09:59;20.90;99.90
35692;DHT22;26978;44.830;-0.674;2022-09-09T11:12:26;21.00;99.90
35692;DHT22;26978;44.830;-0.674;2022-09-09T11:14:57;21.40;99.90
35692;DHT22;26978;44.830;-0.674;2022-09-09T11:17:26;21.20;99.90
35692;DHT22;26978;44.830;-0.674;2022-09-09T11:19:54;20.90;99.90
35692;DHT22;26978;44.830;-0.674;2022-09-09T11:24:53;20.60;99.90
35692;DHT22;26978;44.830;-0.674;2022-09-09T11:27:27;20.70;99.90
35692;DHT22;26978;44.830;-0.674;2022-09-09T11:40:26;21.60;99.90
35692;DHT22;26978;44.830;-0.674;2022-09-09T11:45:38;21.40;99.90
35692;DHT22;26978;44.830;-0.674;2022-09-09T11:48:05;21.60;99.90
35692;DHT22;26978;44.830;-0.674;2022-09-09T11:50:34;21.60;99.90
35692;DHT22;26978;44.830;-0.674;2022-09-09T11:55:39;21.70;99.90
35692;DHT22;26978;44.830;-0.674;2022-09-09T12:00:33;21.40;99.90
35692;DHT22;26978;44.830;-0.674;2022-09-09T12:02:59;21.70;99.90
35692;DHT22;26978;44.830;-0.674;2022-09-09T12:05:35;22.00;99.90
35692;DHT22;26978;44.830;-0.674;2022-09-09T12:08:01;22.10;99.90
35692;DHT22;26978;44.830;-0.674;2022-09-09T12:10:29;22.00;99.90
35692;DHT22;26978;44.830;-0.674;2022-09-09T12:12:55;22.30;99.90
35692;DHT22;26978;44.830;-0.674;2022-09-09T12:15:32;22.20;99.90
35692;DHT22;26978;44.830;-0.674;2022-09-09T12:17:58;22.20;99.90
35692;DHT22;26978;44.830;-0.674;2022-09-09T12:20:31;21.90;99.90
35692;DHT22;26978;44.830;-0.674;2022-09-09T12:28:12;21.30;99.90
35692;DHT22;26978;44.830;-0.674;2022-09-09T12:33:12;21.40;99.90
35692;DHT22;26978;44.830;-0.674;2022-09-09T12:35:38;21.40;99.90
35692;DHT22;26978;44.830;-0.674;2022-09-09T12:38:04;21.50;99.90
35692;DHT22;26978;44.830;-0.674;2022-09-09T12:40:33;21.40;99.90
35692;DHT22;26978;44.830;-0.674;2022-09-09T12:43:01;21.00;99.90
35692;DHT22;26978;44.830;-0.674;2022-09-09T12:45:28;20.90;99.90
35692;DHT22;26978;44.830;-0.674;2022-09-09T12:50:21;21.10;99.90
35692;DHT22;26978;44.830;-0.674;2022-09-09T12:52:49;21.40;99.90
35692;DHT22;26978;44.830;-0.674;2022-09-09T12:55:23;21.70;99.90
35692;DHT22;26978;44.830;-0.674;2022-09-09T12:57:50;21.80;99.90
35692;DHT22;26978;44.830;-0.674;2022-09-09T13:00:20;22.10;99.90
35692;DHT22;26978;44.830;-0.674;2022-09-09T13:02:57;22.10;99.90
35692;DHT22;26978;44.830;-0.674;2022-09-09T13:05:37;22.10;99.90
35692;DHT22;26978;44.830;-0.674;2022-09-09T13:08:04;22.10;99.90
35692;DHT22;26978;44.830;-0.674;2022-09-09T13:10:38;21.70;99.90
35692;DHT22;26978;44.830;-0.674;2022-09-09T13:13:12;21.60;99.90
35692;DHT22;26978;44.830;-0.674;2022-09-09T13:15:39;21.50;99.90
35692;DHT22;26978;44.830;-0.674;2022-09-09T13:18:06;21.40;99.90
35692;DHT22;26978;44.830;-0.674;2022-09-09T13:20:33;21.50;99.90
35692;DHT22;26978;44.830;-0.674;2022-09-09T13:22:58;21.50;99.90
35692;DHT22;26978;44.830;-0.674;2022-09-09T13:25:28;21.70;99.90
35692;DHT22;26978;44.830;-0.674;2022-09-09T13:27:58;21.70;99.90
35692;DHT22;26978;44.830;-0.674;2022-09-09T13:30:24;22.60;98.90
35692;DHT22;26978;44.830;-0.674;2022-09-09T13:33:00;22.80;97.30
35692;DHT22;26978;44.830;-0.674;2022-09-09T13:35:29;23.40;95.80
35692;DHT22;26978;44.830;-0.674;2022-09-09T13:37:54;23.50;97.00
35692;DHT22;26978;44.830;-0.674;2022-09-09T13:40:21;23.20;95.70
35692;DHT22;26978;44.830;-0.674;2022-09-09T13:42:54;23.00;96.60
35692;DHT22;26978;44.830;-0.674;2022-09-09T13:45:21;22.90;95.30
35692;DHT22;26978;44.830;-0.674;2022-09-09T13:47:47;23.80;95.60
35692;DHT22;26978;44.830;-0.674;2022-09-09T13:52:46;23.80;93.80
35692;DHT22;26978;44.830;-0.674;2022-09-09T13:55:12;23.40;93.00
35692;DHT22;26978;44.830;-0.674;2022-09-09T13:57:38;23.20;92.90
35692;DHT22;26978;44.830;-0.674;2022-09-09T14:00:04;23.30;93.10
35692;DHT22;26978;44.830;-0.674;2022-09-09T14:02:31;24.20;92.20
35692;DHT22;26978;44.830;-0.674;2022-09-09T14:04:56;23.80;92.20
35692;DHT22;26978;44.830;-0.674;2022-09-09T14:07:22;24.80;91.50
35692;DHT22;26978;44.830;-0.674;2022-09-09T14:09:48;24.90;87.10
35692;DHT22;26978;44.830;-0.674;2022-09-09T14:12:15;24.00;86.50
35692;DHT22;26978;44.830;-0.674;2022-09-09T14:14:41;23.50;89.80
35692;DHT22;26978;44.830;-0.674;2022-09-09T14:17:08;23.20;89.70
35692;DHT22;26978;44.830;-0.674;2022-09-09T14:19:33;23.10;90.50
35692;DHT22;26978;44.830;-0.674;2022-09-09T14:21:59;23.20;90.70
35692;DHT22;26978;44.830;-0.674;2022-09-09T14:24:24;23.70;90.50
35692;DHT22;26978;44.830;-0.674;2022-09-09T14:26:50;25.30;89.90
35692;DHT22;26978;44.830;-0.674;2022-09-09T14:29:16;25.20;81.70
35692;DHT22;26978;44.830;-0.674;2022-09-09T14:31:41;24.70;85.00
35692;DHT22;26978;44.830;-0.674;2022-09-09T14:34:07;26.00;86.20
35692;DHT22;26978;44.830;-0.674;2022-09-09T14:36:33;25.40;83.50
35692;DHT22;26978;44.830;-0.674;2022-09-09T14:38:58;24.80;84.90
35692;DHT22;26978;44.830;-0.674;2022-09-09T14:41:24;24.40;87.30
35692;DHT22;26978;44.830;-0.674;2022-09-09T14:43:50;24.30;90.30
35692;DHT22;26978;44.830;-0.674;2022-09-09T14:46:17;24.30;88.00
35692;DHT22;26978;44.830;-0.674;2022-09-09T14:48:43;24.10;88.80
35692;DHT22;26978;44.830;-0.674;2022-09-09T14:53:43;24.50;87.70
35692;DHT22;26978;44.830;-0.674;2022-09-09T14:58:35;24.90;83.70
35692;DHT22;26978;44.830;-0.674;2022-09-09T15:01:08;25.10;83.30
35692;DHT22;26978;44.830;-0.674;2022-09-09T15:03:36;23.90;85.00
35692;DHT22;26978;44.830;-0.674;2022-09-09T15:06:06;24.00;86.70
35692;DHT22;26978;44.830;-0.674;2022-09-09T15:08:32;23.80;87.60
35692;DHT22;26978;44.830;-0.674;2022-09-09T15:11:01;23.90;86.70
35692;DHT22;26978;44.830;-0.674;2022-09-09T15:13:27;23.70;86.50
35692;DHT22;26978;44.830;-0.674;2022-09-09T15:15:52;24.60;87.50
35692;DHT22;26978;44.830;-0.674;2022-09-09T15:18:19;26.20;79.60
35692;DHT22;26978;44.830;-0.674;2022-09-09T15:20:45;25.70;79.00
35692;DHT22;26978;44.830;-0.674;2022-09-09T15:23:11;25.30;84.20
35692;DHT22;26978;44.830;-0.674;2022-09-09T15:25:37;25.30;82.90
35692;DHT22;26978;44.830;-0.674;2022-09-09T15:28:03;25.00;84.70
35692;DHT22;26978;44.830;-0.674;2022-09-09T15:30:28;24.90;85.90
35692;DHT22;26978;44.830;-0.674;2022-09-09T15:32:54;23.70;91.20
35692;DHT22;26978;44.830;-0.674;2022-09-09T15:35:20;23.40;92.00
35692;DHT22;26978;44.830;-0.674;2022-09-09T15:37:45;22.90;92.60
35692;DHT22;26978;44.830;-0.674;2022-09-09T15:40:11;22.70;92.90
35692;DHT22;26978;44.830;-0.674;2022-09-09T15:42:36;23.70;92.20
35692;DHT22;26978;44.830;-0.674;2022-09-09T15:45:02;24.80;89.10
35692;DHT22;26978;44.830;-0.674;2022-09-09T15:47:30;24.70;88.10
35692;DHT22;26978;44.830;-0.674;2022-09-09T15:49:55;24.40;88.90
35692;DHT22;26978;44.830;-0.674;2022-09-09T15:52:21;24.20;89.00
35692;DHT22;26978;44.830;-0.674;2022-09-09T15:54:46;23.50;90.30
35692;DHT22;26978;44.830;-0.674;2022-09-09T15:57:12;23.50;91.00
35692;DHT22;26978;44.830;-0.674;2022-09-09T15:59:38;23.20;91.00
35692;DHT22;26978;44.830;-0.674;2022-09-09T16:02:05;23.20;91.50
35692;DHT22;26978;44.830;-0.674;2022-09-09T16:04:31;23.60;92.30
35692;DHT22;26978;44.830;-0.674;2022-09-09T16:07:03;24.30;89.00
35692;DHT22;26978;44.830;-0.674;2022-09-09T16:09:29;24.80;89.40
35692;DHT22;26978;44.830;-0.674;2022-09-09T16:11:55;24.40;89.90
35692;DHT22;26978;44.830;-0.674;2022-09-09T16:14:21;24.40;90.10
35692;DHT22;26978;44.830;-0.674;2022-09-09T16:16:47;23.80;90.90
35692;DHT22;26978;44.830;-0.674;2022-09-09T16:19:13;23.30;91.90
35692;DHT22;26978;44.830;-0.674;2022-09-09T16:21:40;23.20;93.00
35692;DHT22;26978;44.830;-0.674;2022-09-09T16:24:07;23.00;92.70
35692;DHT22;26978;44.830;-0.674;2022-09-09T16:26:33;23.40;91.80
35692;DHT22;26978;44.830;-0.674;2022-09-09T16:28:59;24.10;90.30
35692;DHT22;26978;44.830;-0.674;2022-09-09T16:31:26;24.30;86.60
35692;DHT22;26978;44.830;-0.674;2022-09-09T16:33:52;23.60;89.50
35692;DHT22;26978;44.830;-0.674;2022-09-09T16:36:21;23.10;90.70
35692;DHT22;26978;44.830;-0.674;2022-09-09T16:38:48;22.60;91.70
35692;DHT22;26978;44.830;-0.674;2022-09-09T16:41:13;22.20;92.40
35692;DHT22;26978;44.830;-0.674;2022-09-09T16:43:40;23.30;91.60
35692;DHT22;26978;44.830;-0.674;2022-09-09T16:46:13;24.30;87.30
35692;DHT22;26978;44.830;-0.674;2022-09-09T16:48:40;23.90;86.70
35692;DHT22;26978;44.830;-0.674;2022-09-09T16:51:07;22.90;90.50
35692;DHT22;26978;44.830;-0.674;2022-09-09T16:53:33;23.30;90.70
35692;DHT22;26978;44.830;-0.674;2022-09-09T16:56:06;23.50;90.40
35692;DHT22;26978;44.830;-0.674;2022-09-09T16:58:32;23.30;90.00
35692;DHT22;26978;44.830;-0.674;2022-09-09T17:00:58;23.20;90.60
35692;DHT22;26978;44.830;-0.674;2022-09-09T17:03:23;23.10;91.00
35692;DHT22;26978;44.830;-0.674;2022-09-09T17:05:49;23.00;90.80
35692;DHT22;26978;44.830;-0.674;2022-09-09T17:08:15;22.50;91.90
35692;DHT22;26978;44.830;-0.674;2022-09-09T17:10:41;22.20;93.00
35692;DHT22;26978;44.830;-0.674;2022-09-09T17:13:07;22.40;93.00
35692;DHT22;26978;44.830;-0.674;2022-09-09T17:15:32;22.80;92.40
35692;DHT22;26978;44.830;-0.674;2022-09-09T17:17:59;23.00;91.50
35692;DHT22;26978;44.830;-0.674;2022-09-09T17:20:25;22.80;91.60
35692;DHT22;26978;44.830;-0.674;2022-09-09T17:22:50;22.40;92.50
35692;DHT22;26978;44.830;-0.674;2022-09-09T17:25:16;22.20;93.30
35692;DHT22;26978;44.830;-0.674;2022-09-09T17:27:42;22.00;93.30